createdAt,value
2018-03-16T00:00:59.231Z,3.72
2018-03-16T00:01:59.170Z,3.72
2018-03-16T00:02:59.160Z,3.8
2018-03-16T00:03:59.143Z,3.78
2018-03-16T00:04:59.123Z,3.8
2018-03-16T00:05:59.110Z,3.79
2018-03-16T00:06:59.099Z,3.73
2018-03-16T00:07:59.096Z,3.75
2018-03-16T00:08:59.079Z,3.75
2018-03-16T00:09:59.050Z,3.7
2018-03-16T00:10:59.041Z,3.79
2018-03-16T00:11:59.026Z,3.79
2018-03-16T00:12:59.010Z,3.79
2018-03-16T00:13:59.003Z,3.8
2018-03-16T00:14:58.990Z,3.78
2018-03-16T00:15:58.976Z,3.76
2018-03-16T00:16:58.968Z,3.78
2018-03-16T00:17:58.950Z,3.79
2018-03-16T00:18:58.695Z,3.79
2018-03-16T00:19:58.920Z,3.76
2018-03-16T00:20:58.904Z,3.73
2018-03-16T00:21:58.639Z,3.69
2018-03-16T00:22:58.883Z,3.69
2018-03-16T00:23:58.871Z,3.66
2018-03-16T00:24:58.850Z,3.69
2018-03-16T00:25:58.845Z,3.72
2018-03-16T00:26:58.823Z,3.62
2018-03-16T00:27:58.822Z,3.7
2018-03-16T00:28:58.803Z,3.66
2018-03-16T00:29:58.535Z,3.7
2018-03-16T00:30:58.776Z,3.75
2018-03-16T00:31:58.762Z,3.66
2018-03-16T00:32:58.741Z,3.72
2018-03-16T00:33:58.474Z,3.69
2018-03-16T00:34:58.727Z,3.66
2018-03-16T00:35:58.446Z,3.69
2018-03-16T00:36:58.691Z,3.73
2018-03-16T00:37:58.677Z,3.7
2018-03-16T00:38:58.669Z,3.69
2018-03-16T00:39:58.657Z,3.72
2018-03-16T00:40:58.638Z,3.66
2018-03-16T00:41:58.623Z,3.72
2018-03-16T00:42:58.614Z,3.61
2018-03-16T00:43:58.339Z,3.62
2018-03-16T00:44:58.590Z,3.66
2018-03-16T00:45:58.570Z,3.62
2018-03-16T00:46:58.555Z,3.6
2018-03-16T00:47:58.544Z,3.72
2018-03-16T00:48:58.550Z,3.62
2018-03-16T00:49:58.514Z,3.62
2018-03-16T00:50:58.504Z,3.54
2018-03-16T00:51:58.509Z,3.52
2018-03-16T00:52:58.471Z,3.52
2018-03-16T00:53:58.463Z,3.5
2018-03-16T00:54:58.456Z,3.58
2018-03-16T00:55:58.451Z,3.52
2018-03-16T00:56:58.426Z,3.58
2018-03-16T00:57:58.406Z,3.6
2018-03-16T00:58:58.394Z,3.57
2018-03-16T00:59:58.388Z,3.58
2018-03-16T01:00:58.380Z,3.51
2018-03-16T01:01:58.362Z,3.66
2018-03-16T01:02:58.338Z,3.6
2018-03-16T01:03:58.069Z,3.58
2018-03-16T01:04:58.070Z,3.6
2018-03-16T01:05:58.300Z,3.57
2018-03-16T01:06:58.295Z,3.6
2018-03-16T01:07:58.291Z,3.57
2018-03-16T01:08:58.259Z,3.57
2018-03-16T01:09:58.248Z,3.54
2018-03-16T01:10:58.245Z,3.6
2018-03-16T01:11:57.959Z,3.5
2018-03-16T01:12:58.205Z,3.58
2018-03-16T01:13:58.189Z,3.52
2018-03-16T01:14:57.917Z,3.52
2018-03-16T01:15:58.159Z,3.5
2018-03-16T01:16:58.148Z,3.6
2018-03-16T01:17:58.130Z,3.54
2018-03-16T01:18:58.124Z,3.58
2018-03-16T01:19:58.106Z,3.52
2018-03-16T01:20:58.094Z,3.42
2018-03-16T01:21:58.079Z,3.35
2018-03-16T01:22:58.067Z,3.39
2018-03-16T01:23:58.047Z,3.4
2018-03-16T01:24:58.037Z,3.33
2018-03-16T01:25:58.033Z,3.39
2018-03-16T01:26:58.012Z,3.43
2018-03-16T01:27:57.489Z,3.4
2018-03-16T01:28:57.985Z,3.4
2018-03-16T01:29:57.979Z,3.36
2018-03-16T01:30:57.968Z,3.36
2018-03-16T01:31:57.942Z,3.36
2018-03-16T01:32:57.675Z,3.4
2018-03-16T01:33:57.659Z,3.42
2018-03-16T01:34:57.390Z,3.45
2018-03-16T01:35:57.630Z,3.4
2018-03-16T01:36:57.874Z,3.39
2018-03-16T01:37:57.608Z,3.5
2018-03-16T01:38:57.335Z,3.52
2018-03-16T01:39:57.321Z,3.33
2018-03-16T01:40:57.329Z,3.5
2018-03-16T01:41:57.554Z,3.52
2018-03-16T01:42:57.823Z,3.47
2018-03-16T01:43:57.522Z,3.48
2018-03-16T01:44:57.507Z,3.47
2018-03-16T01:45:57.243Z,3.43
2018-03-16T01:46:57.481Z,3.42
2018-03-16T01:47:57.471Z,3.48
2018-03-16T01:48:57.453Z,3.5
2018-03-16T01:49:57.442Z,3.36
2018-03-16T01:50:57.426Z,3.43
2018-03-16T01:51:57.414Z,3.5
2018-03-16T01:52:57.658Z,3.43
2018-03-16T01:53:57.388Z,3.32
2018-03-16T01:54:57.633Z,3.42
2018-03-16T01:55:57.360Z,3.36
2018-03-16T01:56:57.609Z,3.39
2018-03-16T01:57:57.591Z,3.39
2018-03-16T01:58:57.575Z,3.5
2018-03-16T01:59:57.573Z,3.4
2018-03-16T02:00:57.296Z,3.39
2018-03-16T02:01:57.535Z,3.39
2018-03-16T02:02:57.264Z,3.42
2018-03-16T02:03:57.249Z,3.39
2018-03-16T02:04:57.241Z,3.39
2018-03-16T02:05:57.225Z,3.39
2018-03-16T02:06:57.462Z,3.36
2018-03-16T02:07:57.195Z,3.36
2018-03-16T02:08:57.436Z,3.35
2018-03-16T02:09:57.171Z,3.23
2018-03-16T02:10:57.152Z,3.29
2018-03-16T02:11:57.142Z,3.28
2018-03-16T02:12:57.128Z,3.33
2018-03-16T02:13:57.113Z,3.29
2018-03-16T02:14:57.364Z,3.21
2018-03-16T02:15:57.344Z,3.29
2018-03-16T02:16:57.332Z,3.33
2018-03-16T02:17:57.317Z,3.24
2018-03-16T02:18:57.300Z,3.23
2018-03-16T02:19:57.286Z,3.24
2018-03-16T02:20:57.283Z,3.21
2018-03-16T02:21:57.266Z,3.26
2018-03-16T02:22:57.246Z,3.14
2018-03-16T02:23:57.233Z,3.14
2018-03-16T02:24:57.219Z,3.15
2018-03-16T02:25:57.201Z,3.13
2018-03-16T02:26:57.195Z,3.1
2018-03-16T02:27:57.174Z,3.1
2018-03-16T02:28:57.161Z,3.13
2018-03-16T02:29:57.155Z,3.03
2018-03-16T02:30:57.135Z,3.13
2018-03-16T02:31:56.864Z,3.13
2018-03-16T02:32:56.855Z,3.1
2018-03-16T02:33:57.095Z,3.03
2018-03-16T02:34:57.078Z,3.02
2018-03-16T02:35:57.069Z,2.93
2018-03-16T02:36:57.050Z,2.93
2018-03-16T02:37:57.038Z,2.84
2018-03-16T02:38:57.025Z,2.92
2018-03-16T02:39:57.010Z,2.97
2018-03-16T02:40:57.001Z,3.08
2018-03-16T02:41:56.979Z,3.02
2018-03-16T02:42:56.726Z,3.02
2018-03-16T02:43:56.969Z,3.06
2018-03-16T02:44:56.959Z,2.95
2018-03-16T02:45:56.931Z,2.93
2018-03-16T02:46:56.913Z,2.97
2018-03-16T02:47:56.897Z,2.92
2018-03-16T02:48:56.636Z,2.9
2018-03-16T02:49:56.876Z,2.89
2018-03-16T02:50:56.648Z,2.85
2018-03-16T02:51:56.849Z,2.89
2018-03-16T02:52:56.826Z,2.85
2018-03-16T02:53:56.557Z,2.85
2018-03-16T02:54:56.802Z,2.87
2018-03-16T02:55:56.791Z,2.87
2018-03-16T02:56:56.780Z,2.87
2018-03-16T02:57:56.247Z,2.82
2018-03-16T02:58:56.741Z,2.82
2018-03-16T02:59:56.735Z,2.81
2018-03-16T03:00:56.718Z,2.77
2018-03-16T03:01:56.707Z,2.82
2018-03-16T03:02:56.183Z,2.69
2018-03-16T03:03:56.417Z,2.82
2018-03-16T03:04:56.665Z,2.82
2018-03-16T03:05:56.656Z,2.82
2018-03-16T03:06:56.444Z,2.84
2018-03-16T03:07:56.613Z,2.84
2018-03-16T03:08:56.605Z,2.84
2018-03-16T03:09:56.335Z,2.81
2018-03-16T03:10:56.315Z,2.85
2018-03-16T03:11:56.563Z,2.85
2018-03-16T03:12:56.545Z,2.85
2018-03-16T03:13:56.277Z,2.77
2018-03-16T03:14:56.571Z,2.78
2018-03-16T03:15:56.504Z,2.85
2018-03-16T03:16:56.504Z,2.81
2018-03-16T03:17:56.519Z,2.84
2018-03-16T03:18:56.203Z,2.84
2018-03-16T03:19:56.452Z,2.89
2018-03-16T03:20:56.430Z,2.96
2018-03-16T03:21:56.419Z,2.89
2018-03-16T03:22:56.409Z,2.87
2018-03-16T03:23:56.390Z,2.85
2018-03-16T03:24:56.386Z,2.9
2018-03-16T03:25:56.357Z,2.85
2018-03-16T03:26:56.348Z,2.96
2018-03-16T03:27:56.332Z,2.84
2018-03-16T03:28:56.323Z,2.96
2018-03-16T03:29:56.311Z,2.85
2018-03-16T03:30:56.296Z,2.9
2018-03-16T03:31:56.282Z,2.85
2018-03-16T03:32:56.267Z,2.93
2018-03-16T03:33:56.248Z,2.75
2018-03-16T03:34:56.236Z,2.87
2018-03-16T03:35:55.969Z,2.82
2018-03-16T03:36:56.210Z,2.9
2018-03-16T03:37:56.191Z,2.82
2018-03-16T03:38:56.192Z,2.84
2018-03-16T03:39:56.163Z,2.82
2018-03-16T03:40:56.149Z,2.85
2018-03-16T03:41:56.141Z,2.85
2018-03-16T03:42:55.867Z,2.9
2018-03-16T03:43:56.106Z,2.84
2018-03-16T03:44:56.098Z,2.85
2018-03-16T03:45:56.084Z,2.84
2018-03-16T03:46:55.813Z,2.82
2018-03-16T03:47:56.055Z,2.84
2018-03-16T03:48:55.788Z,2.84
2018-03-16T03:49:56.025Z,2.85
2018-03-16T03:50:56.013Z,2.87
2018-03-16T03:51:56.002Z,2.9
2018-03-16T03:52:55.987Z,2.89
2018-03-16T03:53:55.984Z,2.9
2018-03-16T03:54:55.952Z,2.95
2018-03-16T03:55:55.684Z,2.96
2018-03-16T03:56:55.933Z,2.95
2018-03-16T03:57:55.653Z,2.9
2018-03-16T03:58:55.898Z,2.93
2018-03-16T03:59:55.884Z,2.9
2018-03-16T04:00:55.868Z,2.95
2018-03-16T04:01:55.862Z,2.84
2018-03-16T04:02:55.844Z,2.92
2018-03-16T04:03:55.830Z,2.93
2018-03-16T04:04:55.810Z,2.84
2018-03-16T04:05:55.892Z,2.85
2018-03-16T04:06:55.793Z,2.75
2018-03-16T04:07:55.770Z,2.75
2018-03-16T04:08:55.758Z,2.69
2018-03-16T04:09:55.746Z,2.66
2018-03-16T04:10:55.737Z,2.69
2018-03-16T04:11:55.716Z,2.72
2018-03-16T04:12:55.704Z,2.71
2018-03-16T04:13:55.432Z,2.71
2018-03-16T04:14:55.722Z,2.74
2018-03-16T04:15:55.658Z,2.71
2018-03-16T04:16:55.646Z,2.74
2018-03-16T04:17:55.374Z,2.72
2018-03-16T04:18:55.615Z,2.64
2018-03-16T04:19:55.602Z,2.61
2018-03-16T04:20:55.597Z,2.66
2018-03-16T04:21:55.571Z,2.64
2018-03-16T04:22:55.563Z,2.64
2018-03-16T04:23:55.549Z,2.61
2018-03-16T04:24:55.277Z,2.59
2018-03-16T04:25:55.661Z,2.61
2018-03-16T04:26:55.249Z,2.61
2018-03-16T04:27:55.487Z,2.6
2018-03-16T04:28:55.472Z,2.6
2018-03-16T04:29:55.463Z,2.63
2018-03-16T04:30:55.444Z,2.64
2018-03-16T04:31:55.431Z,2.69
2018-03-16T04:32:55.418Z,2.69
2018-03-16T04:33:55.411Z,2.64
2018-03-16T04:34:55.390Z,2.64
2018-03-16T04:35:55.378Z,2.71
2018-03-16T04:36:55.366Z,2.71
2018-03-16T04:37:55.346Z,2.63
2018-03-16T04:38:55.093Z,2.61
2018-03-16T04:39:55.320Z,2.59
2018-03-16T04:40:55.306Z,2.61
2018-03-16T04:41:55.289Z,2.61
2018-03-16T04:42:55.280Z,2.6
2018-03-16T04:43:55.007Z,2.59
2018-03-16T04:44:55.250Z,2.61
2018-03-16T04:45:55.233Z,2.66
2018-03-16T04:46:55.214Z,2.61
2018-03-16T04:47:55.205Z,2.57
2018-03-16T04:48:55.188Z,2.63
2018-03-16T04:49:55.171Z,2.6
2018-03-16T04:50:55.162Z,2.56
2018-03-16T04:51:55.153Z,2.57
2018-03-16T04:52:55.139Z,2.61
2018-03-16T04:53:54.864Z,2.61
2018-03-16T04:54:55.101Z,2.49
2018-03-16T04:55:54.838Z,2.54
2018-03-16T04:56:54.822Z,2.46
2018-03-16T04:57:55.064Z,2.52
2018-03-16T04:58:54.789Z,2.52
2018-03-16T04:59:55.041Z,2.52
2018-03-16T05:00:54.763Z,2.43
2018-03-16T05:01:55.009Z,2.53
2018-03-16T05:02:54.734Z,2.39
2018-03-16T05:03:54.726Z,2.41
2018-03-16T05:04:54.708Z,2.34
2018-03-16T05:05:54.967Z,2.45
2018-03-16T05:06:54.679Z,2.35
2018-03-16T05:07:54.661Z,2.34
2018-03-16T05:08:54.661Z,2.35
2018-03-16T05:09:54.638Z,2.23
2018-03-16T05:10:54.881Z,2.24
2018-03-16T05:11:54.871Z,2.23
2018-03-16T05:12:54.595Z,2.18
2018-03-16T05:13:54.580Z,2.16
2018-03-16T05:14:54.565Z,2.2
2018-03-16T05:15:54.546Z,2.23
2018-03-16T05:16:54.799Z,2.21
2018-03-16T05:17:54.784Z,2.14
2018-03-16T05:18:54.765Z,2.16
2018-03-16T05:19:54.752Z,2.17
2018-03-16T05:20:54.752Z,2.1
2018-03-16T05:21:54.204Z,2.07
2018-03-16T05:22:54.457Z,2.12
2018-03-16T05:23:54.690Z,2.09
2018-03-16T05:24:54.419Z,2.05
2018-03-16T05:25:54.663Z,2.17
2018-03-16T05:26:54.390Z,2.12
2018-03-16T05:27:54.626Z,2.16
2018-03-16T05:28:54.614Z,2.09
2018-03-16T05:29:54.607Z,2.1
2018-03-16T05:30:54.586Z,2.12
2018-03-16T05:31:54.570Z,2.09
2018-03-16T05:32:54.556Z,2.14
2018-03-16T05:33:54.542Z,2.1
2018-03-16T05:34:54.526Z,2.12
2018-03-16T05:35:54.513Z,2.21
2018-03-16T05:36:54.255Z,2.23
2018-03-16T05:37:54.482Z,2.2
2018-03-16T05:38:54.212Z,2.2
2018-03-16T05:39:54.458Z,2.16
2018-03-16T05:40:54.445Z,2.1
2018-03-16T05:41:54.424Z,2.14
2018-03-16T05:42:54.422Z,2.09
2018-03-16T05:43:54.399Z,2.16
2018-03-16T05:44:54.381Z,2.14
2018-03-16T05:45:54.370Z,2.16
2018-03-16T05:46:54.358Z,2.12
2018-03-16T05:47:54.337Z,2.09
2018-03-16T05:48:54.066Z,2.06
2018-03-16T05:49:54.314Z,2.1
2018-03-16T05:50:54.300Z,2.03
2018-03-16T05:51:54.288Z,2.06
2018-03-16T05:52:54.006Z,2.14
2018-03-16T05:53:54.252Z,2.05
2018-03-16T05:54:54.308Z,2.1
2018-03-16T05:55:54.226Z,2.07
2018-03-16T05:56:54.206Z,2.07
2018-03-16T05:57:54.191Z,2.06
2018-03-16T05:58:53.927Z,2
2018-03-16T05:59:54.164Z,1.9
2018-03-16T06:00:54.435Z,1.91
2018-03-16T06:01:54.136Z,1.91
2018-03-16T06:02:53.866Z,1.87
2018-03-16T06:03:54.114Z,1.95
2018-03-16T06:04:54.100Z,1.86
2018-03-16T06:05:54.076Z,1.87
2018-03-16T06:06:54.079Z,1.91
2018-03-16T06:07:53.793Z,1.9
2018-03-16T06:08:54.030Z,1.9
2018-03-16T06:09:53.761Z,1.83
2018-03-16T06:10:54.000Z,1.88
2018-03-16T06:11:53.995Z,1.81
2018-03-16T06:12:53.978Z,1.8
2018-03-16T06:13:53.705Z,1.76
2018-03-16T06:14:53.942Z,1.77
2018-03-16T06:15:53.675Z,1.8
2018-03-16T06:16:53.918Z,1.77
2018-03-16T06:17:53.898Z,1.81
2018-03-16T06:18:53.636Z,1.79
2018-03-16T06:19:53.869Z,1.83
2018-03-16T06:20:53.855Z,1.79
2018-03-16T06:21:53.586Z,1.83
2018-03-16T06:22:53.567Z,1.87
2018-03-16T06:23:53.813Z,1.77
2018-03-16T06:24:53.292Z,1.8
2018-03-16T06:25:53.538Z,1.84
2018-03-16T06:26:53.573Z,1.8
2018-03-16T06:27:53.496Z,1.77
2018-03-16T06:28:53.481Z,1.8
2018-03-16T06:29:53.468Z,1.81
2018-03-16T06:30:53.453Z,1.84
2018-03-16T06:31:53.436Z,1.83
2018-03-16T06:32:53.423Z,1.83
2018-03-16T06:33:53.166Z,1.83
2018-03-16T06:34:53.397Z,1.81
2018-03-16T06:35:53.636Z,1.77
2018-03-16T06:36:53.363Z,1.77
2018-03-16T06:37:53.607Z,1.84
2018-03-16T06:38:53.591Z,1.93
2018-03-16T06:39:53.317Z,1.91
2018-03-16T06:40:53.559Z,1.87
2018-03-16T06:41:53.549Z,1.84
2018-03-16T06:42:53.789Z,1.83
2018-03-16T06:43:53.259Z,1.8
2018-03-16T06:44:54.172Z,1.81
2018-03-16T06:45:53.485Z,1.77
2018-03-16T06:46:53.470Z,1.79
2018-03-16T06:47:53.454Z,1.76
2018-03-16T06:48:53.186Z,1.83
2018-03-16T06:49:53.433Z,1.8
2018-03-16T06:50:53.157Z,1.79
2018-03-16T06:51:53.210Z,1.81
2018-03-16T06:52:53.397Z,1.8
2018-03-16T06:53:53.365Z,1.86
2018-03-16T06:54:53.360Z,1.83
2018-03-16T06:55:53.344Z,1.77
2018-03-16T06:56:53.348Z,1.81
2018-03-16T06:57:53.310Z,1.83
2018-03-16T06:58:53.303Z,1.83
2018-03-16T06:59:53.280Z,1.91
2018-03-16T07:00:53.267Z,1.93
2018-03-16T07:01:53.263Z,1.91
2018-03-16T07:02:53.238Z,1.9
2018-03-16T07:03:53.223Z,1.9
2018-03-16T07:04:53.211Z,1.9
2018-03-16T07:05:53.196Z,1.8
2018-03-16T07:06:53.184Z,1.77
2018-03-16T07:07:52.908Z,1.84
2018-03-16T07:08:53.149Z,1.81
2018-03-16T07:09:52.892Z,1.8
2018-03-16T07:10:53.125Z,1.8
2018-03-16T07:11:53.103Z,1.83
2018-03-16T07:12:53.096Z,1.77
2018-03-16T07:13:53.323Z,1.84
2018-03-16T07:14:53.056Z,1.84
2018-03-16T07:15:53.051Z,1.8
2018-03-16T07:16:52.520Z,1.8
2018-03-16T07:17:53.019Z,1.8
2018-03-16T07:18:52.746Z,1.8
2018-03-16T07:19:52.990Z,1.77
2018-03-16T07:20:52.972Z,1.83
2018-03-16T07:21:52.961Z,1.81
2018-03-16T07:22:52.943Z,1.77
2018-03-16T07:23:52.928Z,1.83
2018-03-16T07:24:52.918Z,1.79
2018-03-16T07:25:52.907Z,1.79
2018-03-16T07:26:52.885Z,1.77
2018-03-16T07:27:52.869Z,1.81
2018-03-16T07:28:52.598Z,1.93
2018-03-16T07:29:52.914Z,1.98
2018-03-16T07:30:52.607Z,1.95
2018-03-16T07:31:52.807Z,1.81
2018-03-16T07:32:52.977Z,1.86
2018-03-16T07:33:52.785Z,1.84
2018-03-16T07:34:52.766Z,1.77
2018-03-16T07:35:52.497Z,1.87
2018-03-16T07:36:52.485Z,1.81
2018-03-16T07:37:52.475Z,1.8
2018-03-16T07:38:52.709Z,1.9
2018-03-16T07:39:52.438Z,1.95
2018-03-16T07:40:52.710Z,1.91
2018-03-16T07:41:52.410Z,1.91
2018-03-16T07:42:52.452Z,2.02
2018-03-16T07:43:52.644Z,2.07
2018-03-16T07:44:52.875Z,1.9
2018-03-16T07:45:52.351Z,1.91
2018-03-16T07:46:52.601Z,1.98
2018-03-16T07:47:52.329Z,1.81
2018-03-16T07:48:52.320Z,1.91
2018-03-16T07:49:52.293Z,1.93
2018-03-16T07:50:52.281Z,1.91
2018-03-16T07:51:52.268Z,1.88
2018-03-16T07:52:52.511Z,1.91
2018-03-16T07:53:52.497Z,1.88
2018-03-16T07:54:52.478Z,1.91
2018-03-16T07:55:52.238Z,1.88
2018-03-16T07:56:52.192Z,1.86
2018-03-16T07:57:52.433Z,1.83
2018-03-16T07:58:52.417Z,1.79
2018-03-16T07:59:52.428Z,1.77
2018-03-16T08:00:52.143Z,1.81
2018-03-16T08:01:52.382Z,1.76
2018-03-16T08:02:52.368Z,1.77
2018-03-16T08:03:52.348Z,1.83
2018-03-16T08:04:52.328Z,1.76
2018-03-16T08:05:52.063Z,1.86
2018-03-16T08:06:52.307Z,1.73
2018-03-16T08:07:52.284Z,1.81
2018-03-16T08:08:52.380Z,1.77
2018-03-16T08:09:52.256Z,1.81
2018-03-16T08:10:52.247Z,1.77
2018-03-16T08:11:52.294Z,1.79
2018-03-16T08:12:52.210Z,1.72
2018-03-16T08:13:52.199Z,1.8
2018-03-16T08:14:52.191Z,1.83
2018-03-16T08:15:52.205Z,1.8
2018-03-16T08:16:52.155Z,1.79
2018-03-16T08:17:52.143Z,1.81
2018-03-16T08:18:52.126Z,1.77
2018-03-16T08:19:52.116Z,1.87
2018-03-16T08:20:52.100Z,1.83
2018-03-16T08:21:52.089Z,1.84
2018-03-16T08:22:52.090Z,1.79
2018-03-16T08:23:52.052Z,1.8
2018-03-16T08:24:52.037Z,1.77
2018-03-16T08:25:52.025Z,1.72
2018-03-16T08:26:52.008Z,1.73
2018-03-16T08:27:51.993Z,1.62
2018-03-16T08:28:51.726Z,1.6
2018-03-16T08:29:51.712Z,1.59
2018-03-16T08:30:51.949Z,1.63
2018-03-16T08:31:51.682Z,1.59
2018-03-16T08:32:51.921Z,1.66
2018-03-16T08:33:51.909Z,1.68
2018-03-16T08:34:51.899Z,1.73
2018-03-16T08:35:51.888Z,1.76
2018-03-16T08:36:51.863Z,1.81
2018-03-16T08:37:51.854Z,1.76
2018-03-16T08:38:51.836Z,1.73
2018-03-16T08:39:51.817Z,1.7
2018-03-16T08:40:51.812Z,1.7
2018-03-16T08:41:51.813Z,1.69
2018-03-16T08:42:51.789Z,1.69
2018-03-16T08:43:51.510Z,1.81
2018-03-16T08:44:51.752Z,1.83
2018-03-16T08:45:51.738Z,1.79
2018-03-16T08:46:51.720Z,1.76
2018-03-16T08:47:51.720Z,1.79
2018-03-16T08:48:51.691Z,1.79
2018-03-16T08:49:51.722Z,1.7
2018-03-16T08:50:51.666Z,1.58
2018-03-16T08:51:51.640Z,1.68
2018-03-16T08:52:51.629Z,1.65
2018-03-16T08:53:51.104Z,1.73
2018-03-16T08:54:51.596Z,1.76
2018-03-16T08:55:51.591Z,1.77
2018-03-16T08:56:51.571Z,1.73
2018-03-16T08:57:51.562Z,1.69
2018-03-16T08:58:51.623Z,1.73
2018-03-16T08:59:51.546Z,1.76
2018-03-16T09:00:51.521Z,1.69
2018-03-16T09:01:51.503Z,1.73
2018-03-16T09:02:51.547Z,1.68
2018-03-16T09:03:51.479Z,1.66
2018-03-16T09:04:51.460Z,1.58
2018-03-16T09:05:51.440Z,1.59
2018-03-16T09:06:51.428Z,1.6
2018-03-16T09:07:51.152Z,1.55
2018-03-16T09:08:51.159Z,1.58
2018-03-16T09:09:51.380Z,1.59
2018-03-16T09:10:51.385Z,1.62
2018-03-16T09:11:51.354Z,1.52
2018-03-16T09:12:51.336Z,1.51
2018-03-16T09:13:51.318Z,1.59
2018-03-16T09:14:51.313Z,1.63
2018-03-16T09:15:51.300Z,1.59
2018-03-16T09:16:51.279Z,1.63
2018-03-16T09:17:51.011Z,1.6
2018-03-16T09:18:51.511Z,1.62
2018-03-16T09:19:51.247Z,1.55
2018-03-16T09:20:51.232Z,1.6
2018-03-16T09:21:51.205Z,1.45
2018-03-16T09:22:51.188Z,1.47
2018-03-16T09:23:51.171Z,1.42
2018-03-16T09:24:50.904Z,1.42
2018-03-16T09:25:51.147Z,1.44
2018-03-16T09:26:51.161Z,1.42
2018-03-16T09:27:51.127Z,1.45
2018-03-16T09:28:51.103Z,1.51
2018-03-16T09:29:51.172Z,1.52
2018-03-16T09:30:51.083Z,1.4
2018-03-16T09:31:51.056Z,1.37
2018-03-16T09:32:51.044Z,1.34
2018-03-16T09:33:51.034Z,1.4
2018-03-16T09:34:50.792Z,1.34
2018-03-16T09:35:50.996Z,1.33
2018-03-16T09:36:50.989Z,1.41
2018-03-16T09:37:50.975Z,1.33
2018-03-16T09:38:50.451Z,1.3
2018-03-16T09:39:50.687Z,1.32
2018-03-16T09:40:50.935Z,1.36
2018-03-16T09:41:50.936Z,1.3
2018-03-16T09:42:50.652Z,1.32
2018-03-16T09:43:50.894Z,1.36
2018-03-16T09:44:50.866Z,1.42
2018-03-16T09:45:50.856Z,1.42
2018-03-16T09:46:50.843Z,1.42
2018-03-16T09:47:50.819Z,1.55
2018-03-16T09:48:50.834Z,1.54
2018-03-16T09:49:51.046Z,1.51
2018-03-16T09:50:50.783Z,1.54
2018-03-16T09:51:50.509Z,1.58
2018-03-16T09:52:50.767Z,1.58
2018-03-16T09:53:50.746Z,1.58
2018-03-16T09:54:50.724Z,1.58
2018-03-16T09:55:50.706Z,1.6
2018-03-16T09:56:50.442Z,1.54
2018-03-16T09:57:50.675Z,1.59
2018-03-16T09:58:50.405Z,1.63
2018-03-16T09:59:50.394Z,1.63
2018-03-16T10:00:50.670Z,1.6
2018-03-16T10:01:50.639Z,1.58
2018-03-16T10:02:50.614Z,1.58
2018-03-16T10:03:50.606Z,1.54
2018-03-16T10:04:50.318Z,1.45
2018-03-16T10:05:50.321Z,1.48
2018-03-16T10:06:50.556Z,1.54
2018-03-16T10:07:50.538Z,1.42
2018-03-16T10:08:50.509Z,1.47
2018-03-16T10:09:50.500Z,1.52
2018-03-16T10:10:50.497Z,1.55
2018-03-16T10:11:50.472Z,1.52
2018-03-16T10:12:50.455Z,1.59
2018-03-16T10:13:50.452Z,1.6
2018-03-16T10:14:50.165Z,1.65
2018-03-16T10:15:50.160Z,1.59
2018-03-16T10:16:50.148Z,1.54
2018-03-16T10:17:50.564Z,1.5
2018-03-16T10:18:50.118Z,1.59
2018-03-16T10:19:50.095Z,1.52
2018-03-16T10:20:50.330Z,1.6
2018-03-16T10:21:50.360Z,1.6
2018-03-16T10:22:50.321Z,1.6
2018-03-16T10:23:50.314Z,1.54
2018-03-16T10:24:50.031Z,1.45
2018-03-16T10:25:50.281Z,1.52
2018-03-16T10:26:50.249Z,1.44
2018-03-16T10:27:49.981Z,1.37
2018-03-16T10:28:50.249Z,1.34
2018-03-16T10:29:49.953Z,1.34
2018-03-16T10:30:50.194Z,1.37
2018-03-16T10:31:50.176Z,1.26
2018-03-16T10:32:50.166Z,1.16
2018-03-16T10:33:50.140Z,1.15
2018-03-16T10:34:50.129Z,1.09
2018-03-16T10:35:50.129Z,1.14
2018-03-16T10:36:49.853Z,1.15
2018-03-16T10:37:50.113Z,1.04
2018-03-16T10:38:50.079Z,1.02
2018-03-16T10:39:50.052Z,1.02
2018-03-16T10:40:50.039Z,1.09
2018-03-16T10:41:50.028Z,1.05
2018-03-16T10:42:50.068Z,1
2018-03-16T10:43:49.491Z,1.02
2018-03-16T10:44:49.983Z,0.91
2018-03-16T10:45:50.279Z,0.97
2018-03-16T10:46:49.961Z,0.91
2018-03-16T10:47:49.933Z,0.86
2018-03-16T10:48:49.999Z,0.91
2018-03-16T10:49:49.905Z,0.87
2018-03-16T10:50:49.647Z,0.88
2018-03-16T10:51:50.125Z,0.88
2018-03-16T10:52:49.600Z,0.72
2018-03-16T10:53:49.588Z,0.87
2018-03-16T10:54:49.834Z,0.88
2018-03-16T10:55:49.309Z,0.91
2018-03-16T10:56:49.798Z,0.79
2018-03-16T10:57:49.794Z,0.94
2018-03-16T10:58:49.764Z,0.93
2018-03-16T10:59:49.750Z,0.86
2018-03-16T11:00:49.735Z,0.87
2018-03-16T11:01:49.774Z,0.9
2018-03-16T11:02:49.713Z,0.88
2018-03-16T11:03:49.432Z,0.91
2018-03-16T11:04:49.681Z,0.93
2018-03-16T11:05:49.434Z,0.93
2018-03-16T11:06:49.391Z,0.97
2018-03-16T11:07:49.634Z,0.98
2018-03-16T11:08:49.361Z,1
2018-03-16T11:09:49.603Z,0.96
2018-03-16T11:10:49.373Z,0.94
2018-03-16T11:11:49.314Z,0.88
2018-03-16T11:12:49.338Z,0.87
2018-03-16T11:13:49.744Z,0.86
2018-03-16T11:14:49.273Z,0.91
2018-03-16T11:15:49.276Z,0.84
2018-03-16T11:16:49.505Z,0.88
2018-03-16T11:17:49.478Z,0.79
2018-03-16T11:18:49.475Z,0.93
2018-03-16T11:19:49.445Z,0.87
2018-03-16T11:20:49.429Z,0.91
2018-03-16T11:21:49.417Z,0.96
2018-03-16T11:22:49.399Z,0.94
2018-03-16T11:23:49.391Z,1.05
2018-03-16T11:24:49.382Z,0.94
2018-03-16T11:25:49.368Z,0.91
2018-03-16T11:26:49.102Z,0.94
2018-03-16T11:27:48.816Z,0.96
2018-03-16T11:28:49.319Z,0.91
2018-03-16T11:29:49.291Z,0.93
2018-03-16T11:30:49.285Z,0.88
2018-03-16T11:31:49.280Z,0.86
2018-03-16T11:32:49.254Z,0.96
2018-03-16T11:33:48.986Z,0.96
2018-03-16T11:34:49.224Z,1.06
2018-03-16T11:35:49.230Z,1
2018-03-16T11:36:49.216Z,0.96
2018-03-16T11:37:48.920Z,0.96
2018-03-16T11:38:49.161Z,0.93
2018-03-16T11:39:49.160Z,0.9
2018-03-16T11:40:48.904Z,0.91
2018-03-16T11:41:49.154Z,0.94
2018-03-16T11:42:49.100Z,0.97
2018-03-16T11:43:48.837Z,0.93
2018-03-16T11:44:49.076Z,0.91
2018-03-16T11:45:49.063Z,0.94
2018-03-16T11:46:49.044Z,0.97
2018-03-16T11:47:49.056Z,1.05
2018-03-16T11:48:49.029Z,1.04
2018-03-16T11:49:49.014Z,1.14
2018-03-16T11:50:48.987Z,1.04
2018-03-16T11:51:48.966Z,1.14
2018-03-16T11:52:48.973Z,1.15
2018-03-16T11:53:48.950Z,1.18
2018-03-16T11:54:48.928Z,1.2
2018-03-16T11:55:48.917Z,1.11
2018-03-16T11:56:48.896Z,1.15
2018-03-16T11:57:48.874Z,1.12
2018-03-16T11:58:48.906Z,1.11
2018-03-16T11:59:48.855Z,1.22
2018-03-16T12:00:48.831Z,1.24
2018-03-16T12:01:48.815Z,1.09
2018-03-16T12:02:48.801Z,1.24
2018-03-16T12:03:48.529Z,1.12
2018-03-16T12:04:48.779Z,1.18
2018-03-16T12:05:48.773Z,1.27
2018-03-16T12:06:48.760Z,1.24
2018-03-16T12:07:48.728Z,1.27
2018-03-16T12:08:48.746Z,1.24
2018-03-16T12:09:48.934Z,1.36
2018-03-16T12:10:48.841Z,1.26
2018-03-16T12:11:48.699Z,1.27
2018-03-16T12:12:48.681Z,1.29
2018-03-16T12:13:48.680Z,1.14
2018-03-16T12:14:48.627Z,1.14
2018-03-16T12:15:48.367Z,1.11
2018-03-16T12:16:48.602Z,1.11
2018-03-16T12:17:48.585Z,1.2
2018-03-16T12:18:48.567Z,1.16
2018-03-16T12:19:48.545Z,1.11
2018-03-16T12:20:48.534Z,1.11
2018-03-16T12:21:48.524Z,1.22
2018-03-16T12:22:48.508Z,1.12
2018-03-16T12:23:48.237Z,1.18
2018-03-16T12:24:48.472Z,1.24
2018-03-16T12:25:48.721Z,1.3
2018-03-16T12:26:48.444Z,1.29
2018-03-16T12:27:48.429Z,1.33
2018-03-16T12:28:55.289Z,1.42
2018-03-16T12:29:48.398Z,1.4
2018-03-16T12:30:48.383Z,1.34
2018-03-16T12:31:48.110Z,1.34
2018-03-16T12:32:48.360Z,1.4
2018-03-16T12:33:48.355Z,1.34
2018-03-16T12:34:48.334Z,1.45
2018-03-16T12:35:48.306Z,1.4
2018-03-16T12:36:48.509Z,1.4
2018-03-16T12:37:48.310Z,1.44
2018-03-16T12:38:48.014Z,1.4
2018-03-16T12:39:48.246Z,1.42
2018-03-16T12:40:48.233Z,1.42
2018-03-16T12:41:47.974Z,1.42
2018-03-16T12:42:48.206Z,1.4
2018-03-16T12:43:48.222Z,1.44
2018-03-16T12:44:48.176Z,1.37
2018-03-16T12:45:47.910Z,1.37
2018-03-16T12:46:48.158Z,1.44
2018-03-16T12:47:48.145Z,1.41
2018-03-16T12:48:47.875Z,1.45
2018-03-16T12:49:47.854Z,1.44
2018-03-16T12:50:48.082Z,1.45
2018-03-16T12:51:48.084Z,1.47
2018-03-16T12:52:48.091Z,1.4
2018-03-16T12:53:48.057Z,1.41
2018-03-16T12:54:47.772Z,1.37
2018-03-16T12:55:48.027Z,1.36
2018-03-16T12:56:48.257Z,1.29
2018-03-16T12:57:48.001Z,1.33
2018-03-16T12:58:47.736Z,1.3
2018-03-16T12:59:47.969Z,1.27
2018-03-16T13:00:47.691Z,1.37
2018-03-16T13:01:47.672Z,1.29
2018-03-16T13:02:48.085Z,1.32
2018-03-16T13:03:47.905Z,1.36
2018-03-16T13:04:47.911Z,1.29
2018-03-16T13:05:47.974Z,1.24
2018-03-16T13:06:47.596Z,1.42
2018-03-16T13:07:47.909Z,1.36
2018-03-16T13:08:47.835Z,1.42
2018-03-16T13:09:47.560Z,1.37
2018-03-16T13:10:47.795Z,1.32
2018-03-16T13:11:47.789Z,1.41
2018-03-16T13:12:47.768Z,1.41
2018-03-16T13:13:47.766Z,1.44
2018-03-16T13:14:47.486Z,1.37
2018-03-16T13:15:47.471Z,1.32
2018-03-16T13:16:47.705Z,1.37
2018-03-16T13:17:47.716Z,1.3
2018-03-16T13:18:47.688Z,1.41
2018-03-16T13:19:47.660Z,1.45
2018-03-16T13:20:47.663Z,1.34
2018-03-16T13:21:47.378Z,1.34
2018-03-16T13:22:47.643Z,1.33